createdAt,value
2023-12-08T00:00:33.113Z,78.27
2023-12-08T00:03:00.917Z,78.54
2023-12-08T00:05:28.876Z,79.33
2023-12-08T00:07:57.153Z,78.55
2023-12-08T00:10:24.885Z,78.03
2023-12-08T00:12:53.964Z,78.57
2023-12-08T00:15:21.776Z,78.14
2023-12-08T00:17:49.585Z,78.57
2023-12-08T00:20:17.879Z,78.40
2023-12-08T00:22:45.619Z,78.82
2023-12-08T00:25:13.757Z,78.65
2023-12-08T00:27:41.601Z,79.19
2023-12-08T00:30:13.090Z,79.08
2023-12-08T00:32:40.985Z,79.32
2023-12-08T00:35:09.845Z,78.01
2023-12-08T00:37:37.560Z,77.96
2023-12-08T00:40:07.506Z,77.92
2023-12-08T00:42:35.386Z,77.68
2023-12-08T00:45:03.146Z,78.13
2023-12-08T00:47:32.445Z,78.30
2023-12-08T00:50:00.341Z,77.15
2023-12-08T00:52:28.055Z,77.86
2023-12-08T00:54:55.770Z,77.57
2023-12-08T00:57:23.754Z,77.20
2023-12-08T00:59:51.674Z,77.49
2023-12-08T01:02:19.436Z,77.57
2023-12-08T01:04:48.818Z,77.81
2023-12-08T01:07:16.548Z,77.05
2023-12-08T01:09:44.285Z,77.34
2023-12-08T01:12:12.316Z,77.67
2023-12-08T01:14:40.215Z,77.33
2023-12-08T01:17:07.974Z,77.42
2023-12-08T01:19:35.777Z,76.68
2023-12-08T01:22:05.139Z,76.39
2023-12-08T01:24:32.888Z,77.29
2023-12-08T01:27:00.677Z,76.33
2023-12-08T01:29:28.473Z,76.95
2023-12-08T01:31:56.738Z,77.76
2023-12-08T01:34:24.551Z,78.15
2023-12-08T01:36:52.392Z,77.24
2023-12-08T01:39:21.520Z,77.44
2023-12-08T01:41:51.896Z,76.51
2023-12-08T01:44:19.773Z,76.54
2023-12-08T01:46:48.327Z,77.20
2023-12-08T01:49:17.720Z,77.34
2023-12-08T01:51:45.941Z,76.83
2023-12-08T01:54:14.542Z,76.76
2023-12-08T01:56:44.618Z,77.48
2023-12-08T01:59:13.142Z,77.38
2023-12-08T02:01:40.901Z,77.05
2023-12-08T02:04:09.326Z,77.36
2023-12-08T02:06:37.637Z,77.32
2023-12-08T02:09:05.394Z,76.80
2023-12-08T02:11:33.327Z,77.60
2023-12-08T02:14:02.601Z,77.19
2023-12-08T02:16:35.843Z,77.37
2023-12-08T02:19:05.494Z,76.72
2023-12-08T02:21:33.929Z,77.20
2023-12-08T02:24:03.064Z,76.24
2023-12-08T02:26:30.886Z,76.35
2023-12-08T02:28:58.677Z,75.79
2023-12-08T02:31:31.345Z,76.42
2023-12-08T02:34:00.231Z,75.72
2023-12-08T02:36:29.091Z,76.22
2023-12-08T02:38:57.855Z,75.99
2023-12-08T02:41:27.005Z,75.73
2023-12-08T02:43:54.761Z,76.30
2023-12-08T02:46:22.492Z,75.89
2023-12-08T02:48:54.660Z,76.32
2023-12-08T02:51:23.336Z,76.01
2023-12-08T02:53:51.208Z,75.09
2023-12-08T02:56:18.970Z,75.72
2023-12-08T02:58:48.047Z,75.61
2023-12-08T03:01:17.011Z,75.24
2023-12-08T03:03:44.942Z,75.02
2023-12-08T03:06:12.804Z,75.09
2023-12-08T03:08:40.669Z,74.92
2023-12-08T03:11:08.623Z,74.67
2023-12-08T03:13:36.411Z,74.89
2023-12-08T03:16:06.216Z,74.75
2023-12-08T03:18:34.204Z,74.86
2023-12-08T03:21:02.036Z,74.03
2023-12-08T03:23:29.825Z,74.62
2023-12-08T03:25:57.545Z,74.19
2023-12-08T03:28:25.267Z,75.44
2023-12-08T03:30:52.995Z,75.86
2023-12-08T03:33:22.135Z,75.40
2023-12-08T03:35:50.014Z,75.20
2023-12-08T03:38:17.759Z,76.00
2023-12-08T03:40:45.576Z,75.73
2023-12-08T03:43:13.315Z,76.21
2023-12-08T03:45:41.046Z,76.58
2023-12-08T03:48:08.885Z,77.37
2023-12-08T03:50:38.045Z,77.21
2023-12-08T03:53:05.784Z,77.11
2023-12-08T03:55:33.537Z,75.94
2023-12-08T03:58:01.239Z,76.37
2023-12-08T04:00:29.087Z,76.08
2023-12-08T04:02:56.843Z,76.53
2023-12-08T04:05:24.812Z,75.43
2023-12-08T04:07:53.887Z,75.65
2023-12-08T04:10:21.825Z,76.29
2023-12-08T04:12:49.526Z,75.79
2023-12-08T04:15:17.469Z,75.20
2023-12-08T04:17:45.277Z,74.52
2023-12-08T04:20:13.262Z,75.03
2023-12-08T04:22:40.990Z,75.50
2023-12-08T04:25:10.488Z,75.94
2023-12-08T04:27:38.156Z,75.42
2023-12-08T04:30:06.826Z,75.09
2023-12-08T04:32:34.969Z,75.33
2023-12-08T04:35:02.812Z,75.89
2023-12-08T04:37:30.541Z,75.26
2023-12-08T04:39:58.215Z,74.83
2023-12-08T04:42:27.278Z,75.00
2023-12-08T04:44:54.999Z,74.52
2023-12-08T04:47:23.528Z,73.76
2023-12-08T04:49:51.468Z,74.42
2023-12-08T04:52:19.219Z,74.24
2023-12-08T04:54:46.939Z,73.53
2023-12-08T04:57:14.921Z,73.94
2023-12-08T04:59:44.175Z,74.39
2023-12-08T05:02:11.873Z,74.44
2023-12-08T05:04:39.700Z,74.34
2023-12-08T05:07:07.433Z,74.33
2023-12-08T05:09:35.184Z,74.42
2023-12-08T05:12:03.211Z,74.11
2023-12-08T05:14:30.955Z,74.27
2023-12-08T05:17:00.028Z,73.61
2023-12-08T05:19:27.828Z,74.85
2023-12-08T05:21:57.169Z,74.41
2023-12-08T05:24:24.848Z,73.84
2023-12-08T05:26:52.609Z,73.00
2023-12-08T05:29:20.356Z,73.31
2023-12-08T05:31:48.269Z,74.17
2023-12-08T05:34:17.453Z,72.76
2023-12-08T05:36:45.237Z,73.89
2023-12-08T05:39:12.990Z,73.04
2023-12-08T05:41:40.816Z,73.26
2023-12-08T05:44:08.533Z,73.42
2023-12-08T05:46:36.286Z,73.85
2023-12-08T05:49:04.427Z,72.47
2023-12-08T05:51:33.662Z,73.10
2023-12-08T05:54:01.429Z,73.21
2023-12-08T05:56:29.151Z,72.51
2023-12-08T05:58:56.835Z,73.15
2023-12-08T06:01:24.549Z,72.58
2023-12-08T06:03:52.835Z,72.04
2023-12-08T06:06:20.699Z,71.86
2023-12-08T06:08:49.878Z,72.82
2023-12-08T06:11:17.630Z,72.49
2023-12-08T06:13:45.323Z,72.58
2023-12-08T06:16:13.083Z,72.16
2023-12-08T06:18:40.893Z,72.58
2023-12-08T06:21:08.928Z,71.96
2023-12-08T06:23:36.804Z,72.15
2023-12-08T06:26:06.479Z,72.90
2023-12-08T06:28:34.378Z,72.64
2023-12-08T06:31:02.679Z,72.49
2023-12-08T06:33:30.658Z,72.08
2023-12-08T06:35:59.028Z,72.01
2023-12-08T06:38:26.750Z,72.33
2023-12-08T06:40:55.867Z,71.67
2023-12-08T06:43:24.920Z,72.27
2023-12-08T06:45:52.975Z,72.82
2023-12-08T06:48:23.167Z,71.54
2023-12-08T06:50:51.100Z,71.64
2023-12-08T06:53:19.061Z,71.38
2023-12-08T06:55:46.828Z,71.45
2023-12-08T06:58:14.519Z,71.36
2023-12-08T07:00:43.621Z,70.51
2023-12-08T07:03:12.005Z,70.37
2023-12-08T07:05:39.957Z,71.22
2023-12-08T07:08:08.881Z,71.75
2023-12-08T07:10:36.948Z,71.25
2023-12-08T07:13:05.108Z,72.34
2023-12-08T07:15:32.868Z,72.04
2023-12-08T07:18:02.052Z,72.53
2023-12-08T07:20:30.472Z,73.08
2023-12-08T07:22:58.224Z,73.16
2023-12-08T07:25:26.030Z,73.60
2023-12-08T07:27:53.798Z,75.88
2023-12-08T07:30:21.561Z,75.63
2023-12-08T07:32:50.367Z,75.88
2023-12-08T07:35:21.102Z,76.30
2023-12-08T07:37:50.192Z,77.11
2023-12-08T07:40:19.553Z,77.59
2023-12-08T07:42:47.518Z,77.71
2023-12-08T07:45:15.677Z,77.73
2023-12-08T07:47:45.007Z,78.41
2023-12-08T07:50:13.780Z,78.67
2023-12-08T07:52:43.255Z,79.00
2023-12-08T07:55:11.095Z,79.71
2023-12-08T07:57:39.407Z,79.47
2023-12-08T08:00:10.553Z,79.93
2023-12-08T08:02:38.615Z,80.96
2023-12-08T08:05:07.278Z,79.36
2023-12-08T08:07:35.310Z,79.61
2023-12-08T08:10:05.229Z,80.80
2023-12-08T08:12:34.871Z,80.34
2023-12-08T08:15:02.805Z,80.35
2023-12-08T08:17:30.822Z,81.43
2023-12-08T08:19:58.716Z,81.19
2023-12-08T08:22:31.689Z,80.90
2023-12-08T08:25:00.919Z,81.13
2023-12-08T08:27:31.214Z,81.48
2023-12-08T08:29:59.447Z,81.62
2023-12-08T08:32:27.236Z,80.90
2023-12-08T08:34:57.694Z,80.99
2023-12-08T08:37:26.432Z,81.34
2023-12-08T08:39:54.675Z,80.63
2023-12-08T08:42:22.852Z,81.29
2023-12-08T08:44:52.020Z,80.80
2023-12-08T08:47:20.758Z,80.34
2023-12-08T08:49:48.632Z,80.89
2023-12-08T08:52:16.681Z,82.03
2023-12-08T08:54:44.952Z,81.13
2023-12-08T08:57:12.791Z,82.27
2023-12-08T08:59:40.623Z,82.88
2023-12-08T09:02:09.782Z,82.58
2023-12-08T09:04:37.606Z,83.73
2023-12-08T09:07:05.993Z,83.42
2023-12-08T09:09:33.948Z,83.82
2023-12-08T09:12:02.179Z,84.47
2023-12-08T09:14:30.498Z,84.62
2023-12-08T09:16:58.324Z,84.20
2023-12-08T09:19:27.718Z,85.24
2023-12-08T09:21:55.525Z,84.43
2023-12-08T09:24:24.176Z,85.12
2023-12-08T09:26:53.778Z,84.94
2023-12-08T09:29:22.178Z,85.06
2023-12-08T09:31:50.117Z,85.46
2023-12-08T09:34:18.457Z,86.28
2023-12-08T09:37:24.708Z,85.06
2023-12-08T09:39:35.428Z,86.01
2023-12-08T09:42:08.521Z,86.21
2023-12-08T09:44:36.737Z,86.31
2023-12-08T09:47:05.629Z,85.64
2023-12-08T09:49:42.081Z,86.03
2023-12-08T09:52:14.652Z,85.86
2023-12-08T09:54:43.168Z,86.89
2023-12-08T09:57:12.192Z,86.49
2023-12-08T09:59:41.168Z,86.94
2023-12-08T10:02:10.147Z,86.55
2023-12-08T10:04:38.078Z,87.35
2023-12-08T10:07:10.201Z,87.07
2023-12-08T10:09:40.022Z,86.52
2023-12-08T10:12:10.980Z,86.49
2023-12-08T10:14:52.265Z,86.52
2023-12-08T10:17:21.446Z,86.65
2023-12-08T10:19:49.290Z,86.13
2023-12-08T10:22:17.390Z,86.59
2023-12-08T10:24:47.714Z,86.25
2023-12-08T10:27:15.694Z,86.64
2023-12-08T10:29:43.612Z,86.80
2023-12-08T10:32:11.532Z,86.40
2023-12-08T10:34:40.849Z,87.11
2023-12-08T10:37:10.168Z,87.46
2023-12-08T10:39:38.285Z,87.35
2023-12-08T10:42:07.730Z,86.86
2023-12-08T10:44:36.237Z,86.70
2023-12-08T10:47:04.397Z,86.09
2023-12-08T10:49:35.336Z,87.11
2023-12-08T10:52:04.045Z,86.18
2023-12-08T10:54:33.964Z,86.25
2023-12-08T10:57:02.295Z,86.64
2023-12-08T10:59:34.263Z,86.47
2023-12-08T11:02:04.103Z,86.43
2023-12-08T11:04:36.005Z,87.06
2023-12-08T11:07:11.808Z,87.16
2023-12-08T11:09:41.993Z,86.82
2023-12-08T11:12:12.373Z,86.84
2023-12-08T11:14:46.367Z,86.87
2023-12-08T11:17:21.458Z,86.36
2023-12-08T11:19:49.835Z,87.13
2023-12-08T11:22:18.648Z,86.50
2023-12-08T11:24:47.253Z,86.73
2023-12-08T11:27:22.384Z,86.33
2023-12-08T11:30:01.657Z,86.48
2023-12-08T11:32:37.429Z,86.04
2023-12-08T11:35:08.747Z,86.08
2023-12-08T11:37:36.563Z,85.96
2023-12-08T11:40:07.106Z,86.49
2023-12-08T11:42:35.502Z,85.54
2023-12-08T11:45:07.928Z,85.44
2023-12-08T11:47:36.897Z,85.68
2023-12-08T11:50:06.607Z,85.68
2023-12-08T11:52:35.776Z,85.05
2023-12-08T11:55:11.270Z,85.84
2023-12-08T11:57:43.151Z,86.19
2023-12-08T12:00:14.416Z,86.00
2023-12-08T12:02:44.159Z,84.79
2023-12-08T12:05:12.536Z,85.19
2023-12-08T12:07:42.953Z,85.65
2023-12-08T12:10:13.087Z,86.02
2023-12-08T12:12:43.714Z,85.71
2023-12-08T12:15:13.338Z,84.97
2023-12-08T12:17:43.004Z,85.83
2023-12-08T12:20:12.626Z,85.55
2023-12-08T12:22:40.989Z,85.47
2023-12-08T12:25:10.342Z,85.31
2023-12-08T12:27:40.411Z,85.14
2023-12-08T12:30:09.608Z,85.15
2023-12-08T12:32:39.139Z,85.38
2023-12-08T12:35:08.596Z,85.61
2023-12-08T12:37:36.643Z,85.10
2023-12-08T12:40:08.479Z,85.73
2023-12-08T12:42:41.522Z,85.92
2023-12-08T12:45:11.616Z,86.09
2023-12-08T12:47:42.189Z,85.69
2023-12-08T12:50:11.094Z,86.06
2023-12-08T12:52:41.439Z,86.06
2023-12-08T12:55:24.847Z,84.91
2023-12-08T12:57:53.927Z,84.77
2023-12-08T13:00:32.569Z,84.27
2023-12-08T13:03:09.217Z,84.83
2023-12-08T13:05:44.777Z,85.29
2023-12-08T13:08:13.627Z,85.07
2023-12-08T13:10:43.755Z,84.88
2023-12-08T13:13:12.048Z,84.75
2023-12-08T13:15:40.247Z,84.72
2023-12-08T13:18:10.000Z,84.58
2023-12-08T13:20:38.775Z,84.80
2023-12-08T13:23:06.746Z,85.11
2023-12-08T13:25:34.510Z,85.76
2023-12-08T13:28:02.236Z,84.76
2023-12-08T13:30:30.129Z,85.88
2023-12-08T13:32:58.817Z,86.06
2023-12-08T13:35:28.696Z,85.79
2023-12-08T13:37:56.451Z,85.50
2023-12-08T13:40:26.604Z,84.78
2023-12-08T13:42:54.433Z,85.18
2023-12-08T13:45:22.239Z,85.57
2023-12-08T13:47:50.037Z,84.81
2023-12-08T13:50:17.987Z,85.04
2023-12-08T13:52:47.059Z,85.80
2023-12-08T13:55:15.034Z,84.87
2023-12-08T13:57:42.810Z,84.67
2023-12-08T14:00:11.820Z,84.66
2023-12-08T14:02:39.530Z,84.51
2023-12-08T14:05:09.042Z,84.25
2023-12-08T14:07:36.911Z,84.98
2023-12-08T14:10:08.856Z,84.45
2023-12-08T14:12:36.660Z,84.69
2023-12-08T14:15:05.471Z,84.95
2023-12-08T14:17:33.981Z,85.59
2023-12-08T14:20:01.907Z,85.46
2023-12-08T14:22:29.686Z,85.80
2023-12-08T14:24:57.421Z,85.86
2023-12-08T14:27:26.881Z,86.07
2023-12-08T14:29:54.911Z,85.25
2023-12-08T14:32:23.474Z,85.96
2023-12-08T14:34:51.555Z,85.39
2023-12-08T14:37:19.659Z,85.31
2023-12-08T14:39:47.497Z,86.27
2023-12-08T14:42:15.450Z,85.47
2023-12-08T14:44:45.076Z,86.34
2023-12-08T14:47:12.845Z,85.68
2023-12-08T14:49:41.805Z,84.68
2023-12-08T14:52:09.564Z,85.51
2023-12-08T14:54:38.621Z,84.51
2023-12-08T14:57:06.801Z,85.38
2023-12-08T14:59:34.620Z,85.31
2023-12-08T15:02:04.618Z,85.69
2023-12-08T15:04:32.394Z,84.92
2023-12-08T15:07:00.162Z,85.19
2023-12-08T15:09:27.985Z,84.99
2023-12-08T15:11:55.752Z,85.30
2023-12-08T15:14:23.543Z,85.38
2023-12-08T15:16:51.268Z,85.67
2023-12-08T15:19:20.504Z,85.12
2023-12-08T15:21:48.362Z,84.56
2023-12-08T15:24:16.335Z,84.57
2023-12-08T15:26:44.375Z,84.86
2023-12-08T15:29:12.234Z,85.26
2023-12-08T15:31:41.086Z,84.50
2023-12-08T15:34:08.965Z,84.62
2023-12-08T15:36:38.151Z,84.78
2023-12-08T15:39:06.268Z,84.47
2023-12-08T15:41:34.259Z,85.18
2023-12-08T15:44:02.145Z,84.95
2023-12-08T15:46:30.222Z,84.71
2023-12-08T15:48:58.079Z,84.46
2023-12-08T15:51:25.921Z,84.52
2023-12-08T15:53:55.011Z,85.22
2023-12-08T15:56:22.802Z,85.37
2023-12-08T15:58:50.471Z,84.93
2023-12-08T16:01:19.266Z,85.28
2023-12-08T16:03:47.026Z,84.89
2023-12-08T16:06:15.449Z,84.52
2023-12-08T16:08:44.239Z,84.39
2023-12-08T16:11:18.047Z,84.30
2023-12-08T16:13:47.201Z,84.55
2023-12-08T16:16:15.181Z,83.93
2023-12-08T16:18:43.155Z,83.99
2023-12-08T16:21:21.625Z,84.38
2023-12-08T16:23:49.572Z,84.15
2023-12-08T16:26:18.722Z,84.52
2023-12-08T16:28:46.724Z,84.67
2023-12-08T16:31:14.503Z,84.11
2023-12-08T16:33:42.464Z,83.76
2023-12-08T16:36:11.391Z,84.42
2023-12-08T16:38:40.124Z,84.79
2023-12-08T16:41:09.022Z,84.28
2023-12-08T16:43:38.147Z,84.48
2023-12-08T16:46:05.936Z,84.85
2023-12-08T16:48:33.832Z,84.24
2023-12-08T16:51:03.316Z,84.72
2023-12-08T16:53:31.531Z,84.69
2023-12-08T16:55:59.630Z,84.93
2023-12-08T16:58:27.426Z,84.56
2023-12-08T17:00:56.590Z,84.67
2023-12-08T17:03:24.740Z,85.52
2023-12-08T17:05:52.665Z,85.09
2023-12-08T17:08:20.428Z,84.96
2023-12-08T17:10:48.230Z,84.07
2023-12-08T17:13:16.084Z,84.36
2023-12-08T17:15:43.860Z,84.99
2023-12-08T17:18:13.165Z,84.08
2023-12-08T17:20:40.994Z,84.99
2023-12-08T17:23:08.765Z,84.45
2023-12-08T17:25:36.440Z,84.73
2023-12-08T17:28:06.074Z,84.61
2023-12-08T17:30:34.142Z,84.90
2023-12-08T17:33:02.057Z,84.63
2023-12-08T17:35:31.283Z,85.17
2023-12-08T17:37:59.058Z,84.87
2023-12-08T17:40:29.323Z,84.50
2023-12-08T17:42:57.717Z,84.47
2023-12-08T17:45:26.078Z,85.37
2023-12-08T17:47:53.963Z,85.07
2023-12-08T17:50:21.765Z,84.62
2023-12-08T17:52:50.921Z,85.24
2023-12-08T17:55:18.663Z,84.94
2023-12-08T17:57:46.390Z,85.11
2023-12-08T18:00:14.835Z,84.78
2023-12-08T18:02:43.340Z,84.54
2023-12-08T18:05:11.907Z,85.32
2023-12-08T18:07:39.604Z,85.58
2023-12-08T18:10:09.824Z,85.23
2023-12-08T18:12:37.643Z,85.21
2023-12-08T18:15:06.339Z,85.81
2023-12-08T18:17:34.232Z,85.33
2023-12-08T18:20:02.039Z,85.88
2023-12-08T18:22:31.355Z,85.34
2023-12-08T18:24:59.067Z,85.54
2023-12-08T18:27:39.588Z,85.60
2023-12-08T18:30:16.857Z,84.99
2023-12-08T18:32:44.641Z,84.80
2023-12-08T18:35:12.449Z,85.63
2023-12-08T18:37:40.440Z,85.41
2023-12-08T18:40:09.716Z,85.07
2023-12-08T18:42:38.800Z,85.20
2023-12-08T18:45:07.892Z,85.31
2023-12-08T18:47:35.763Z,85.49
2023-12-08T18:50:06.300Z,85.91
2023-12-08T18:52:34.148Z,85.59
2023-12-08T18:55:04.170Z,85.64
2023-12-08T18:57:31.979Z,85.86
2023-12-08T19:00:01.302Z,85.52
2023-12-08T19:02:29.397Z,85.72
2023-12-08T19:04:58.010Z,86.08
2023-12-08T19:07:25.759Z,86.34
2023-12-08T19:09:53.494Z,85.83
2023-12-08T19:12:21.841Z,86.10
2023-12-08T19:14:49.684Z,86.37
2023-12-08T19:17:18.771Z,86.26
2023-12-08T19:19:46.522Z,86.02
2023-12-08T19:22:14.266Z,86.22
2023-12-08T19:24:42.033Z,86.51
2023-12-08T19:27:09.990Z,86.89
2023-12-08T19:29:41.774Z,86.95
2023-12-08T19:32:09.682Z,86.74
2023-12-08T19:34:38.878Z,86.33
2023-12-08T19:37:06.678Z,86.75
2023-12-08T19:39:34.520Z,86.40
2023-12-08T19:42:02.393Z,86.61
2023-12-08T19:44:30.078Z,87.01
2023-12-08T19:46:57.820Z,86.53
2023-12-08T19:49:25.706Z,86.99
2023-12-08T19:51:54.892Z,86.46
2023-12-08T19:54:22.629Z,87.37
2023-12-08T19:56:50.564Z,87.10
2023-12-08T19:59:18.383Z,87.28
2023-12-08T20:01:46.141Z,87.88
2023-12-08T20:04:14.144Z,88.55
2023-12-08T20:06:41.929Z,87.92
2023-12-08T20:09:11.051Z,87.90
2023-12-08T20:11:38.825Z,88.20
2023-12-08T20:14:07.886Z,87.56
2023-12-08T20:16:42.757Z,87.74
2023-12-08T20:19:10.858Z,87.52
2023-12-08T20:21:38.745Z,87.29
2023-12-08T20:24:09.639Z,86.66
2023-12-08T20:26:38.825Z,87.16
2023-12-08T20:29:07.242Z,87.25
2023-12-08T20:31:35.187Z,87.22
2023-12-08T20:34:03.070Z,87.47
2023-12-08T20:36:31.001Z,87.26
2023-12-08T20:38:59.011Z,87.26
2023-12-08T20:41:26.786Z,87.03
2023-12-08T20:43:55.853Z,87.42
2023-12-08T20:46:23.661Z,86.96
2023-12-08T20:48:51.781Z,86.55
2023-12-08T20:51:19.645Z,86.53
2023-12-08T20:53:47.543Z,86.50
2023-12-08T20:56:17.702Z,86.94
2023-12-08T20:58:45.907Z,86.95
2023-12-08T21:01:15.872Z,86.83
2023-12-08T21:03:43.757Z,86.56
2023-12-08T21:06:11.688Z,86.80
2023-12-08T21:08:39.483Z,86.52
2023-12-08T21:11:08.537Z,86.60
2023-12-08T21:13:36.273Z,86.27
2023-12-08T21:16:04.143Z,86.45
2023-12-08T21:18:33.709Z,86.22
2023-12-08T21:21:01.608Z,86.26
2023-12-08T21:23:29.542Z,86.16
2023-12-08T21:25:57.340Z,86.01
2023-12-08T21:28:25.910Z,85.92
2023-12-08T21:30:53.640Z,86.11
2023-12-08T21:33:21.479Z,85.67
2023-12-08T21:35:51.856Z,85.82
2023-12-08T21:38:19.733Z,85.77
2023-12-08T21:40:50.441Z,85.49
2023-12-08T21:43:18.606Z,85.55
2023-12-08T21:45:46.393Z,85.43
2023-12-08T21:48:14.566Z,85.64
2023-12-08T21:50:42.385Z,85.26
2023-12-08T21:53:11.718Z,85.88
2023-12-08T21:55:39.452Z,85.59
2023-12-08T21:58:07.234Z,85.52
2023-12-08T22:00:35.553Z,85.87
2023-12-08T22:03:04.304Z,86.04
2023-12-08T22:05:32.132Z,85.89
2023-12-08T22:07:59.964Z,86.10
2023-12-08T22:10:29.022Z,85.54
2023-12-08T22:12:56.802Z,85.57
2023-12-08T22:15:24.648Z,85.62
2023-12-08T22:17:52.464Z,85.30
2023-12-08T22:20:20.760Z,85.59
2023-12-08T22:22:48.529Z,85.60
2023-12-08T22:25:16.320Z,85.38
2023-12-08T22:27:45.436Z,85.54
2023-12-08T22:30:13.425Z,85.44
2023-12-08T22:32:41.412Z,85.52
2023-12-08T22:35:09.249Z,85.53
2023-12-08T22:37:38.003Z,85.51
2023-12-08T22:40:06.905Z,84.73
2023-12-08T22:42:34.697Z,84.79
2023-12-08T22:45:04.029Z,84.84
2023-12-08T22:47:33.049Z,85.01
2023-12-08T22:50:03.061Z,85.05
2023-12-08T22:52:31.716Z,84.54
2023-12-08T22:54:59.862Z,84.96
2023-12-08T22:57:27.717Z,84.68
2023-12-08T22:59:56.174Z,85.27
2023-12-08T23:02:25.542Z,85.09
2023-12-08T23:04:53.469Z,84.91
2023-12-08T23:07:21.201Z,84.76
2023-12-08T23:09:48.948Z,85.30
2023-12-08T23:12:17.028Z,85.34
2023-12-08T23:14:44.769Z,85.24
2023-12-08T23:17:12.570Z,85.45
2023-12-08T23:19:41.959Z,85.36
2023-12-08T23:22:09.773Z,85.59
2023-12-08T23:24:37.493Z,85.56
2023-12-08T23:27:05.557Z,85.47
2023-12-08T23:29:33.295Z,85.92
2023-12-08T23:32:00.995Z,86.35
2023-12-08T23:34:28.952Z,86.41
2023-12-08T23:36:58.040Z,86.36
2023-12-08T23:39:26.189Z,85.90
2023-12-08T23:41:54.002Z,85.60
2023-12-08T23:44:22.522Z,85.87
2023-12-08T23:46:50.339Z,85.60
2023-12-08T23:49:18.397Z,86.36
2023-12-08T23:51:46.805Z,86.38
2023-12-08T23:54:15.998Z,86.01
2023-12-08T23:56:43.794Z,85.83
2023-12-08T23:59:11.604Z,85.34
